Time;durP1;ratioP1;P1;durP2;ratioP2;P2;SDS_P1;SDS_P2;PMS_P1;PMS_P2;Temp;Humidity;BMP_temperature;BMP_pressure;BME280_temperature;BME280_humidity;BME280_pressure;Samples;Min_cycle;Max_cycle;Signal;HPM_P1;HPM_P2
2024/03/15 00:00:11;;;;;;;11.48;6.95;;;9.40;99.90;;;;;;4977310;28;20199;-86
2024/03/15 00:02:37;;;;;;;7.70;6.72;;;9.30;99.90;;;;;;4976970;28;20263;-86
2024/03/15 00:05:03;;;;;;;8.18;6.68;;;9.30;99.90;;;;;;4978692;28;20279;-86
2024/03/15 00:07:30;;;;;;;8.85;6.07;;;9.30;99.90;;;;;;4977132;28;20181;-86
2024/03/15 00:09:57;;;;;;;8.68;6.30;;;9.30;99.90;;;;;;4978351;28;20189;-87
2024/03/15 00:12:23;;;;;;;8.35;6.63;;;9.30;99.90;;;;;;4977319;28;20183;-86
2024/03/15 00:14:49;;;;;;;8.68;6.13;;;9.30;99.90;;;;;;4977286;28;20180;-85
2024/03/15 00:17:17;;;;;;;9.00;6.68;;;9.30;99.90;;;;;;4978274;28;20175;-86
2024/03/15 00:19:42;;;;;;;10.10;6.55;;;9.30;99.90;;;;;;4978245;28;20215;-87
2024/03/15 00:22:08;;;;;;;6.90;5.50;;;9.20;99.90;;;;;;4978188;28;20177;-87
2024/03/15 00:24:34;;;;;;;8.20;5.90;;;9.10;99.90;;;;;;4975670;28;20188;-85
2024/03/15 00:27:01;;;;;;;6.80;5.82;;;9.20;99.90;;;;;;4973292;28;20220;-86
2024/03/15 00:29:27;;;;;;;7.18;5.55;;;9.00;99.90;;;;;;4960366;28;20512;-86
2024/03/15 00:31:56;;;;;;;7.05;5.20;;;9.10;99.90;;;;;;4978017;28;20179;-87
2024/03/15 00:34:23;;;;;;;7.68;5.90;;;9.10;99.90;;;;;;4977787;28;20169;-86
2024/03/15 00:36:49;;;;;;;6.57;5.78;;;9.00;99.90;;;;;;4977752;28;20176;-85
2024/03/15 00:39:15;;;;;;;9.00;5.60;;;9.00;99.90;;;;;;4960606;28;20223;-86
2024/03/15 00:41:42;;;;;;;7.78;5.72;;;9.00;99.90;;;;;;4960504;28;20181;-86
2024/03/15 00:44:08;;;;;;;5.88;5.25;;;9.00;99.90;;;;;;4960317;28;20180;-85
2024/03/15 00:46:33;;;;;;;6.80;4.97;;;9.00;99.90;;;;;;4977508;28;20557;-86
2024/03/15 00:48:59;;;;;;;6.50;5.13;;;9.00;99.90;;;;;;4976488;28;20220;-86
2024/03/15 00:51:25;;;;;;;7.50;5.35;;;9.00;99.90;;;;;;4977701;28;20507;-85
2024/03/15 00:53:51;;;;;;;7.13;4.97;;;9.00;99.90;;;;;;4960666;28;20494;-86
2024/03/15 00:56:17;;;;;;;6.75;5.30;;;9.00;99.90;;;;;;4977332;28;20179;-85
2024/03/15 00:58:43;;;;;;;7.68;5.25;;;9.10;99.90;;;;;;4959283;28;20208;-85
2024/03/15 01:01:10;;;;;;;6.15;5.25;;;9.00;99.90;;;;;;4975821;28;20219;-86
2024/03/15 01:03:36;;;;;;;9.80;5.90;;;9.10;99.90;;;;;;4977459;28;20309;-86
2024/03/15 01:06:02;;;;;;;10.88;6.13;;;9.10;99.90;;;;;;4977208;28;20682;-86
2024/03/15 01:08:33;;;;;;;6.60;5.38;;;9.20;99.90;;;;;;4976898;28;20184;-84
2024/03/15 01:11:00;;;;;;;10.45;5.22;;;9.10;99.90;;;;;;4959944;28;20267;-85
2024/03/15 01:13:25;;;;;;;8.88;5.50;;;9.10;99.90;;;;;;4975764;28;20607;-85
2024/03/15 01:15:51;;;;;;;7.85;5.35;;;9.00;99.90;;;;;;4959825;28;20187;-85
2024/03/15 01:18:19;;;;;;;8.02;5.63;;;9.00;99.90;;;;;;4959832;28;20298;-85
2024/03/15 01:20:44;;;;;;;9.90;5.45;;;9.10;99.90;;;;;;4975870;28;20177;-85
2024/03/15 01:23:10;;;;;;;8.68;5.05;;;9.10;99.90;;;;;;4959690;28;20188;-85
2024/03/15 01:25:37;;;;;;;8.25;5.10;;;9.10;99.90;;;;;;4976558;28;20204;-85
2024/03/15 01:28:05;;;;;;;5.72;5.03;;;9.10;99.90;;;;;;4959585;28;20236;-85
2024/03/15 01:30:31;;;;;;;6.45;5.30;;;9.10;99.90;;;;;;4976867;28;20268;-85
2024/03/15 01:32:57;;;;;;;5.85;5.07;;;9.10;99.90;;;;;;4975205;28;20207;-87
2024/03/15 01:35:32;;;;;;;8.50;5.15;;;9.20;99.90;;;;;;4958933;28;20199;-86
2024/03/15 01:38:00;;;;;;;7.05;5.20;;;9.20;99.90;;;;;;4976658;28;20204;-85
2024/03/15 01:40:35;;;;;;;6.05;4.78;;;9.20;99.90;;;;;;4976329;28;20177;-86
2024/03/15 01:43:01;;;;;;;5.68;4.90;;;9.20;99.90;;;;;;4958773;28;20164;-86
2024/03/15 01:45:27;;;;;;;8.85;4.85;;;9.20;99.90;;;;;;4976423;28;20177;-86
2024/03/15 01:47:54;;;;;;;7.32;4.90;;;9.20;99.90;;;;;;4976472;28;20180;-85
2024/03/15 01:50:22;;;;;;;7.40;5.10;;;9.20;99.90;;;;;;4959295;28;20177;-85
2024/03/15 01:52:49;;;;;;;6.05;4.93;;;9.30;99.90;;;;;;4976505;28;20187;-85
2024/03/15 01:55:15;;;;;;;7.88;5.10;;;9.20;99.90;;;;;;4959291;28;20188;-85
2024/03/15 01:57:53;;;;;;;8.25;4.68;;;9.30;99.90;;;;;;4975967;28;20171;-86
2024/03/15 02:00:20;;;;;;;7.05;4.80;;;9.30;99.90;;;;;;4976487;28;20183;-86
2024/03/15 02:02:45;;;;;;;12.23;5.10;;;9.30;99.90;;;;;;4959064;28;20194;-85
2024/03/15 02:05:13;;;;;;;6.45;4.70;;;9.30;99.90;;;;;;4976342;28;20572;-86
2024/03/15 02:07:39;;;;;;;5.90;4.57;;;9.30;99.90;;;;;;4959110;28;20550;-85
2024/03/15 02:10:13;;;;;;;5.30;4.55;;;9.30;99.90;;;;;;4976252;28;20190;-85
2024/03/15 02:12:39;;;;;;;6.70;4.65;;;9.30;99.90;;;;;;4975982;28;20173;-85
2024/03/15 02:15:07;;;;;;;7.95;5.20;;;9.20;99.90;;;;;;4975984;28;20181;-85
2024/03/15 02:17:36;;;;;;;4.65;4.18;;;9.20;99.90;;;;;;4958807;28;20204;-85
2024/03/15 02:20:11;;;;;;;5.53;4.50;;;9.20;99.90;;;;;;4958957;28;20210;-86
2024/03/15 02:22:39;;;;;;;5.25;4.43;;;9.20;99.90;;;;;;4976197;28;20247;-86
2024/03/15 02:25:07;;;;;;;5.75;4.68;;;9.20;99.90;;;;;;4953224;29;20643;-86
2024/03/15 02:27:32;;;;;;;7.30;4.93;;;9.20;99.90;;;;;;4966513;28;20224;-85
2024/03/15 02:29:59;;;;;;;9.98;4.65;;;9.20;99.90;;;;;;4959245;28;20236;-85
2024/03/15 02:32:25;;;;;;;5.68;4.45;;;9.20;99.90;;;;;;4958864;28;20176;-86
2024/03/15 02:34:54;;;;;;;5.57;4.32;;;9.30;99.90;;;;;;4975763;28;20647;-85
2024/03/15 02:37:19;;;;;;;5.57;4.70;;;9.30;99.90;;;;;;4975846;28;20223;-86
2024/03/15 02:39:46;;;;;;;6.70;4.85;;;9.30;99.90;;;;;;4958621;28;20220;-85
2024/03/15 02:42:11;;;;;;;5.88;4.80;;;9.30;99.90;;;;;;4974704;28;20204;-85
2024/03/15 02:44:38;;;;;;;6.45;4.55;;;9.30;99.90;;;;;;4974891;28;20494;-84
2024/03/15 02:47:03;;;;;;;6.38;5.00;;;9.30;99.90;;;;;;4975756;28;20181;-85
2024/03/15 02:49:30;;;;;;;7.05;4.38;;;9.30;99.90;;;;;;4958390;28;20323;-86
2024/03/15 02:51:56;;;;;;;6.13;5.15;;;9.30;99.90;;;;;;4958784;28;20177;-86
2024/03/15 02:54:24;;;;;;;6.45;4.60;;;9.30;99.90;;;;;;4961419;28;20181;-85
2024/03/15 02:56:50;;;;;;;6.68;3.95;;;9.30;99.90;;;;;;4956068;28;20180;-85
2024/03/15 02:59:16;;;;;;;5.55;4.50;;;9.30;99.90;;;;;;4961425;28;20216;-84
2024/03/15 03:01:46;;;;;;;6.75;4.72;;;9.30;99.90;;;;;;4962271;28;20187;-85
2024/03/15 03:04:15;;;;;;;6.30;4.57;;;9.30;99.90;;;;;;4978820;28;20604;-85
2024/03/15 03:06:42;;;;;;;4.88;4.38;;;9.30;99.90;;;;;;4993768;28;20524;-85
2024/03/15 03:09:20;;;;;;;6.65;4.47;;;9.40;99.90;;;;;;4961960;28;20272;-85
2024/03/15 03:11:46;;;;;;;6.30;4.53;;;9.40;99.90;;;;;;4961723;28;20188;-86
2024/03/15 03:14:14;;;;;;;8.35;5.05;;;9.40;99.90;;;;;;4961867;28;20172;-86
2024/03/15 03:16:42;;;;;;;7.07;4.82;;;9.40;99.90;;;;;;4994097;28;20192;-86
2024/03/15 03:19:09;;;;;;;6.93;5.03;;;9.40;99.90;;;;;;4961373;28;20223;-86
2024/03/15 03:21:34;;;;;;;6.35;5.30;;;9.50;99.90;;;;;;4961566;28;20184;-85
2024/03/15 03:24:00;;;;;;;6.05;5.25;;;9.40;99.90;;;;;;4961821;28;20180;-85
2024/03/15 03:26:30;;;;;;;8.13;5.50;;;9.40;99.90;;;;;;4937930;29;20237;-87
2024/03/15 03:28:58;;;;;;;7.15;5.07;;;9.50;99.90;;;;;;4958497;29;20276;-85
2024/03/15 03:31:24;;;;;;;7.82;5.22;;;9.50;99.90;;;;;;4959574;29;20160;-85
2024/03/15 03:33:50;;;;;;;6.53;4.72;;;9.50;99.90;;;;;;5344311;23;20469;-84
2024/03/15 03:36:16;;;;;;;6.72;5.20;;;9.60;99.90;;;;;;4939502;29;20178;-85
2024/03/15 03:38:42;;;;;;;6.90;5.28;;;9.60;99.90;;;;;;4922168;29;20554;-85
2024/03/15 03:41:08;;;;;;;8.13;5.50;;;9.70;99.90;;;;;;4940187;29;20185;-85
2024/03/15 03:43:34;;;;;;;6.25;5.25;;;9.70;99.90;;;;;;4921958;29;20764;-84
2024/03/15 03:46:02;;;;;;;6.00;5.40;;;9.70;99.90;;;;;;4921966;29;20268;-85
2024/03/15 03:48:29;;;;;;;7.70;5.82;;;9.80;99.90;;;;;;4922507;29;20230;-84
2024/03/15 03:50:55;;;;;;;7.15;5.65;;;9.80;99.90;;;;;;4922061;29;20621;-85
2024/03/15 03:53:21;;;;;;;8.75;5.40;;;9.90;99.90;;;;;;4939578;29;20178;-85
2024/03/15 03:55:53;;;;;;;8.27;5.82;;;9.90;99.90;;;;;;4922228;29;20609;-85
2024/03/15 03:58:23;;;;;;;8.02;6.00;;;9.90;99.90;;;;;;4939017;29;20233;-84
2024/03/15 04:00:50;;;;;;;11.32;6.03;;;9.80;99.90;;;;;;4922291;29;20186;-84
2024/03/15 04:03:16;;;;;;;9.57;5.97;;;9.80;99.90;;;;;;4922053;29;20605;-85
2024/03/15 04:05:45;;;;;;;7.18;6.00;;;9.90;99.90;;;;;;4917416;29;20201;-85
2024/03/15 04:08:12;;;;;;;7.85;5.63;;;9.90;99.90;;;;;;4935114;29;20179;-85
2024/03/15 04:10:38;;;;;;;7.10;6.00;;;9.90;99.90;;;;;;4921915;29;20613;-85
2024/03/15 04:13:04;;;;;;;7.90;5.97;;;9.90;99.90;;;;;;4922064;29;20189;-85
2024/03/15 04:15:30;;;;;;;7.95;5.90;;;9.80;99.90;;;;;;4938972;29;20208;-85
2024/03/15 04:18:01;;;;;;;7.15;5.90;;;9.80;99.90;;;;;;4921789;29;20241;-85
2024/03/15 04:20:27;;;;;;;7.90;5.70;;;9.80;99.90;;;;;;4938366;29;20245;-85
2024/03/15 04:22:53;;;;;;;7.75;6.30;;;9.80;99.90;;;;;;4938790;29;20270;-85
2024/03/15 04:25:20;;;;;;;9.57;5.80;;;9.80;99.90;;;;;;4938974;29;20178;-85
2024/03/15 04:27:46;;;;;;;8.80;6.28;;;9.70;99.90;;;;;;4921831;29;20270;-85
2024/03/15 04:30:15;;;;;;;8.52;6.35;;;9.60;99.90;;;;;;4938670;29;20209;-85
2024/03/15 04:32:49;;;;;;;7.10;6.15;;;9.60;99.90;;;;;;4921693;29;20189;-84
2024/03/15 04:35:18;;;;;;;7.80;5.95;;;9.50;99.90;;;;;;4921156;29;20255;-85
2024/03/15 04:37:44;;;;;;;9.35;6.55;;;9.50;99.90;;;;;;4938351;29;20178;-84
2024/03/15 04:40:10;;;;;;;9.98;6.22;;;9.40;99.90;;;;;;4921338;29;20181;-84
2024/03/15 04:42:37;;;;;;;10.27;6.85;;;9.40;99.90;;;;;;4936452;29;20204;-84
2024/03/15 04:45:09;;;;;;;10.70;7.07;;;9.30;99.90;;;;;;4937056;29;20182;-85
2024/03/15 04:47:39;;;;;;;9.02;6.68;;;9.30;99.90;;;;;;4921315;29;20178;-85
2024/03/15 04:50:07;;;;;;;9.60;7.00;;;9.30;99.90;;;;;;4921142;29;20193;-85
2024/03/15 04:52:33;;;;;;;9.95;6.35;;;9.30;99.90;;;;;;4938348;29;20171;-85
2024/03/15 04:54:58;;;;;;;7.53;6.50;;;9.30;99.90;;;;;;4938346;29;20185;-84
2024/03/15 04:57:27;;;;;;;8.75;6.30;;;9.30;99.90;;;;;;4920865;29;20182;-86
2024/03/15 04:59:54;;;;;;;8.90;6.32;;;9.40;99.90;;;;;;4921125;29;20238;-85
2024/03/15 05:02:20;;;;;;;7.97;6.72;;;9.40;99.90;;;;;;4921071;29;20269;-85
2024/03/15 05:04:46;;;;;;;9.65;6.45;;;9.30;99.90;;;;;;4920703;29;20277;-85
2024/03/15 05:07:13;;;;;;;10.55;6.95;;;9.30;99.90;;;;;;4936763;29;20189;-86
2024/03/15 05:09:38;;;;;;;8.20;6.80;;;9.20;99.90;;;;;;4920859;29;20170;-85
2024/03/15 05:12:05;;;;;;;10.02;6.95;;;9.20;99.90;;;;;;4937877;29;20209;-84
2024/03/15 05:14:30;;;;;;;7.32;6.35;;;9.20;99.90;;;;;;4920940;29;20265;-86
2024/03/15 05:16:56;;;;;;;8.25;6.22;;;9.20;99.90;;;;;;4920673;29;20271;-85
2024/03/15 05:19:23;;;;;;;8.27;6.00;;;9.20;99.90;;;;;;4920688;29;20213;-85
2024/03/15 05:21:52;;;;;;;8.77;6.20;;;9.10;99.90;;;;;;4937844;29;20170;-85
2024/03/15 05:24:17;;;;;;;9.55;6.55;;;9.10;99.90;;;;;;4920529;29;20190;-85
2024/03/15 05:26:43;;;;;;;7.97;6.35;;;9.10;99.90;;;;;;4937505;29;20210;-85
2024/03/15 05:29:09;;;;;;;8.35;6.00;;;9.10;99.90;;;;;;4920848;29;20192;-86
2024/03/15 05:31:35;;;;;;;8.57;6.55;;;9.00;99.90;;;;;;4920630;29;20189;-85
2024/03/15 05:34:01;;;;;;;10.15;6.72;;;9.00;99.90;;;;;;4920130;29;20628;-85
2024/03/15 05:36:27;;;;;;;9.80;6.70;;;9.00;99.90;;;;;;4920501;29;20174;-85
2024/03/15 05:38:53;;;;;;;8.40;6.57;;;9.10;99.90;;;;;;4916339;29;20265;-84
2024/03/15 05:41:19;;;;;;;7.93;6.13;;;9.10;99.90;;;;;;4930270;29;20182;-85
2024/03/15 05:43:45;;;;;;;9.05;6.72;;;9.10;99.90;;;;;;4937371;29;20323;-85
2024/03/15 05:46:11;;;;;;;7.35;6.40;;;9.10;99.90;;;;;;4936261;29;20182;-85
2024/03/15 05:48:38;;;;;;;8.68;6.32;;;9.10;99.90;;;;;;4936340;29;20221;-84
2024/03/15 05:51:04;;;;;;;7.97;6.78;;;9.10;99.90;;;;;;4935743;29;20189;-85
2024/03/15 05:53:30;;;;;;;9.63;6.95;;;9.10;99.90;;;;;;4950836;29;20181;-85
2024/03/15 05:55:57;;;;;;;9.43;6.40;;;9.00;99.90;;;;;;4934605;29;20178;-84
2024/03/15 05:58:23;;;;;;;8.55;6.43;;;8.90;99.90;;;;;;4934636;29;20206;-85
2024/03/15 06:00:49;;;;;;;9.82;7.10;;;8.90;99.90;;;;;;4935129;29;20182;-85
2024/03/15 06:03:16;;;;;;;10.18;7.57;;;8.90;99.90;;;;;;4934935;29;20185;-84
2024/03/15 06:05:42;;;;;;;8.95;6.63;;;8.90;99.90;;;;;;4918436;29;20186;-85
2024/03/15 06:08:10;;;;;;;9.27;6.80;;;8.90;99.90;;;;;;4919688;29;20233;-84
2024/03/15 06:10:36;;;;;;;7.90;6.55;;;9.00;99.90;;;;;;4920012;29;20193;-85
2024/03/15 06:13:02;;;;;;;7.50;6.28;;;9.00;99.90;;;;;;4937128;29;20178;-85
2024/03/15 06:15:28;;;;;;;10.25;6.80;;;9.00;99.90;;;;;;4935980;29;20174;-84
2024/03/15 06:17:54;;;;;;;8.18;7.00;;;9.00;99.90;;;;;;4935722;29;20174;-84
2024/03/15 06:20:20;;;;;;;10.95;7.00;;;9.00;99.90;;;;;;4935215;29;20669;-85
2024/03/15 06:22:46;;;;;;;8.18;7.13;;;9.20;99.90;;;;;;4935549;29;20178;-85
2024/03/15 06:25:11;;;;;;;9.45;7.20;;;9.30;99.90;;;;;;4935634;29;20193;-85
2024/03/15 06:27:44;;;;;;;8.43;6.65;;;9.40;99.90;;;;;;4937412;29;20257;-85
2024/03/15 06:30:12;;;;;;;9.80;7.80;;;9.50;99.90;;;;;;4941133;29;20166;-85
2024/03/15 06:32:38;;;;;;;10.57;7.20;;;9.50;99.90;;;;;;4923469;29;20696;-85
2024/03/15 06:35:27;;;;;;;10.30;7.72;;;9.60;99.90;;;;;;4925553;29;20237;-83
2024/03/15 06:38:07;;;;;;;9.13;6.97;;;9.70;99.90;;;;;;4930774;29;20572;-84
2024/03/15 06:41:29;;;;;;;11.48;7.38;;;9.80;99.90;;;;;;4935273;29;20257;-84
2024/03/15 06:43:41;;;;;;;14.25;8.18;;;9.90;99.90;;;;;;4942167;29;20198;-84
2024/03/15 06:46:19;;;;;;;9.52;7.22;;;10.00;99.90;;;;;;4921834;29;20286;-84
2024/03/15 06:48:55;;;;;;;9.73;7.35;;;10.20;99.90;;;;;;4950595;29;20181;-84
2024/03/15 06:54:07;;;;;;;14.63;7.50;;;10.40;99.90;;;;;;4945940;29;20573;-84
2024/03/15 06:56:32;;;;;;;9.35;7.05;;;10.50;99.90;;;;;;4937145;29;20539;-83
2024/03/15 06:58:58;;;;;;;11.02;7.30;;;10.60;99.90;;;;;;4956415;29;20221;-84
2024/03/15 07:01:24;;;;;;;10.07;7.53;;;10.70;99.90;;;;;;4950377;29;20672;-84
2024/03/15 07:03:49;;;;;;;11.07;7.03;;;10.80;99.90;;;;;;4947753;29;20215;-83
2024/03/15 07:06:20;;;;;;;13.60;8.02;;;10.90;99.90;;;;;;4947692;29;20189;-83
2024/03/15 07:08:52;;;;;;;9.48;6.88;;;11.10;99.90;;;;;;4934021;29;20221;-83
2024/03/15 07:11:18;;;;;;;8.98;6.53;;;11.20;99.90;;;;;;4938056;29;20188;-83
2024/03/15 07:13:44;;;;;;;11.35;6.75;;;11.30;99.90;;;;;;4949564;29;20681;-83
2024/03/15 07:16:11;;;;;;;9.27;6.68;;;11.40;99.90;;;;;;4947092;29;20193;-83
2024/03/15 07:18:37;;;;;;;8.73;6.55;;;11.50;99.90;;;;;;4932203;29;20300;-83
2024/03/15 07:21:03;;;;;;;10.35;6.50;;;11.60;99.90;;;;;;4927295;29;20194;-82
2024/03/15 07:23:31;;;;;;;8.93;6.43;;;11.60;99.90;;;;;;4943091;29;20569;-84
2024/03/15 07:25:57;;;;;;;10.25;6.45;;;11.70;99.90;;;;;;4943858;29;20212;-83
2024/03/15 07:28:23;;;;;;;10.20;7.30;;;11.80;99.90;;;;;;4932811;29;20281;-83
2024/03/15 07:30:55;;;;;;;9.88;6.85;;;11.90;99.90;;;;;;4939856;29;20272;-84
2024/03/15 07:33:21;;;;;;;10.23;6.72;;;12.00;99.90;;;;;;4940475;29;20192;-83
2024/03/15 07:35:48;;;;;;;13.05;6.57;;;12.00;99.90;;;;;;4953542;29;20238;-82
2024/03/15 07:38:15;;;;;;;8.68;6.72;;;12.10;99.90;;;;;;4953912;29;20218;-84
2024/03/15 07:40:41;;;;;;;10.63;6.95;;;12.10;99.90;;;;;;4953895;29;20539;-83
2024/03/15 07:43:09;;;;;;;12.20;6.97;;;12.20;99.90;;;;;;4953809;29;20177;-84
2024/03/15 07:45:35;;;;;;;12.43;7.28;;;12.20;99.90;;;;;;4958522;29;20174;-85
2024/03/15 07:48:01;;;;;;;10.48;7.03;;;12.30;99.90;;;;;;4956971;29;20616;-84
2024/03/15 07:50:27;;;;;;;14.43;6.45;;;12.40;99.90;;;;;;4973075;28;20169;-84
2024/03/15 07:52:53;;;;;;;10.68;6.50;;;12.40;99.90;;;;;;4973307;28;20181;-84
2024/03/15 07:55:20;;;;;;;10.55;6.55;;;12.50;99.90;;;;;;4940989;29;20185;-84
2024/03/15 07:57:47;;;;;;;10.48;6.63;;;12.60;99.90;;;;;;4973100;28;20184;-84
2024/03/15 08:00:15;;;;;;;10.18;6.63;;;12.70;99.90;;;;;;4941477;29;20516;-84
2024/03/15 08:02:41;;;;;;;8.88;6.35;;;12.80;99.90;;;;;;4958275;29;20173;-84
2024/03/15 08:05:07;;;;;;;10.77;6.57;;;12.80;99.90;;;;;;4952527;29;20273;-84
2024/03/15 08:07:33;;;;;;;7.90;5.38;;;12.80;99.90;;;;;;5373550;23;20243;-83
2024/03/15 08:09:58;;;;;;;8.90;5.63;;;12.90;99.90;;;;;;4979345;28;20676;-85
2024/03/15 08:12:24;;;;;;;8.10;5.50;;;12.90;99.90;;;;;;4996673;28;20172;-83
2024/03/15 08:14:50;;;;;;;6.70;5.63;;;13.00;99.90;;;;;;4979292;28;20179;-84
2024/03/15 08:17:16;;;;;;;12.05;5.25;;;13.00;99.90;;;;;;4995307;28;20250;-84
2024/03/15 08:19:42;;;;;;;7.72;5.40;;;13.00;99.90;;;;;;4996291;28;20211;-84
2024/03/15 08:22:09;;;;;;;7.05;5.22;;;13.00;99.90;;;;;;4979180;28;20513;-82
2024/03/15 08:24:36;;;;;;;7.43;5.18;;;13.20;99.90;;;;;;4995389;28;20551;-83
2024/03/15 08:27:02;;;;;;;7.55;5.20;;;13.40;99.90;;;;;;4978980;28;20618;-83
2024/03/15 08:29:28;;;;;;;10.00;5.32;;;13.40;99.90;;;;;;4996439;28;20207;-82
2024/03/15 08:31:53;;;;;;;7.93;5.05;;;13.50;99.90;;;;;;4995077;28;20593;-86
2024/03/15 08:34:21;;;;;;;7.68;5.50;;;13.60;99.90;;;;;;4995034;28;20274;-84
2024/03/15 08:36:47;;;;;;;7.47;5.25;;;13.70;99.90;;;;;;4995020;28;20180;-85
2024/03/15 08:39:15;;;;;;;8.10;4.68;;;13.80;99.90;;;;;;4996027;28;20207;-85
2024/03/15 08:41:42;;;;;;;6.63;4.28;;;13.90;99.90;;;;;;4978865;28;20562;-85
2024/03/15 08:44:08;;;;;;;9.73;5.03;;;13.90;99.90;;;;;;4976129;28;20615;-84
2024/03/15 08:46:36;;;;;;;6.45;4.50;;;14.00;99.90;;;;;;4993278;28;20188;-84
2024/03/15 08:49:02;;;;;;;8.02;4.90;;;14.00;99.90;;;;;;4987892;28;20272;-84
2024/03/15 08:51:28;;;;;;;6.00;4.65;;;14.00;99.90;;;;;;4969802;28;20278;-84
2024/03/15 08:53:53;;;;;;;7.55;4.47;;;13.90;99.90;;;;;;4971127;28;20183;-83
2024/03/15 08:56:19;;;;;;;7.85;4.50;;;13.90;99.90;;;;;;4994195;28;20176;-86
2024/03/15 08:58:46;;;;;;;5.53;4.30;;;13.90;99.90;;;;;;4986733;28;20733;-85
2024/03/15 09:01:12;;;;;;;5.97;4.57;;;13.90;99.90;;;;;;4993473;28;20180;-80
2024/03/15 09:03:39;;;;;;;6.07;4.18;;;14.10;99.90;;;;;;4980009;28;20246;-82
2024/03/15 09:06:06;;;;;;;10.13;4.63;;;14.10;99.90;;;;;;4975734;28;20566;-85
2024/03/15 09:08:35;;;;;;;5.82;4.60;;;14.20;99.90;;;;;;4988392;28;20243;-82
2024/03/15 09:11:01;;;;;;;5.07;4.22;;;14.40;99.90;;;;;;4981776;28;20179;-84
2024/03/15 09:13:28;;;;;;;5.97;4.43;;;14.40;99.90;;;;;;4991849;28;20292;-82
2024/03/15 09:15:56;;;;;;;7.93;4.28;;;14.40;99.90;;;;;;4981845;28;20212;-83
2024/03/15 09:18:23;;;;;;;8.93;4.68;;;14.50;99.90;;;;;;4990931;28;20200;-82
2024/03/15 09:20:51;;;;;;;5.97;4.65;;;14.60;99.90;;;;;;4992917;28;20184;-86
2024/03/15 09:23:19;;;;;;;6.05;4.38;;;14.60;99.90;;;;;;4993326;28;20180;-84
2024/03/15 09:25:45;;;;;;;5.57;4.10;;;14.60;99.90;;;;;;4973634;28;20180;-82
2024/03/15 09:28:12;;;;;;;8.43;4.57;;;14.60;99.90;;;;;;4976368;28;20176;-83
2024/03/15 09:30:49;;;;;;;7.03;4.57;;;14.80;99.90;;;;;;4974619;28;20180;-85
2024/03/15 09:33:16;;;;;;;7.43;5.00;;;14.90;99.90;;;;;;4992949;28;20681;-84
2024/03/15 09:35:46;;;;;;;8.10;4.28;;;15.00;99.90;;;;;;4972272;28;20195;-84
2024/03/15 09:38:13;;;;;;;5.95;4.18;;;15.10;99.90;;;;;;4987757;28;20208;-83
2024/03/15 09:40:39;;;;;;;6.28;4.95;;;15.20;99.90;;;;;;4982261;28;20697;-83
2024/03/15 09:43:08;;;;;;;12.57;4.60;;;15.30;99.90;;;;;;4990129;28;20188;-84
2024/03/15 09:45:35;;;;;;;6.22;4.72;;;15.40;99.90;;;;;;4992182;28;20176;-84
2024/03/15 09:48:03;;;;;;;6.05;4.70;;;15.20;99.90;;;;;;4969491;28;20251;-83
2024/03/15 09:50:31;;;;;;;6.60;5.03;;;15.00;99.90;;;;;;4971587;28;20214;-85
2024/03/15 09:52:57;;;;;;;9.20;5.10;;;15.00;99.90;;;;;;4990612;28;20187;-81
2024/03/15 09:55:23;;;;;;;6.93;5.10;;;14.80;99.90;;;;;;4960932;28;20199;-81
2024/03/15 09:57:50;;;;;;;6.10;4.95;;;14.80;99.90;;;;;;4964313;28;20180;-86
2024/03/15 10:00:22;;;;;;;6.40;4.97;;;14.80;99.90;;;;;;4977077;28;20569;-85
2024/03/15 10:02:49;;;;;;;8.30;5.45;;;14.90;99.90;;;;;;4958790;28;20268;-84
2024/03/15 10:05:16;;;;;;;10.13;5.10;;;14.90;99.90;;;;;;4988929;28;20180;-86
2024/03/15 10:07:43;;;;;;;6.18;4.35;;;15.00;99.90;;;;;;4983436;28;20239;-86
2024/03/15 10:10:11;;;;;;;6.60;4.70;;;14.90;99.90;;;;;;4964018;28;20273;-83
2024/03/15 10:12:46;;;;;;;7.68;4.97;;;14.90;99.90;;;;;;4972747;28;20184;-83
2024/03/15 10:15:16;;;;;;;6.85;5.28;;;14.90;99.90;;;;;;4966042;28;20187;-84
2024/03/15 10:17:44;;;;;;;7.85;5.10;;;15.10;99.90;;;;;;4965390;28;20188;-84
2024/03/15 10:20:17;;;;;;;5.18;4.32;;;15.10;99.90;;;;;;4969417;28;20227;-85
2024/03/15 10:22:48;;;;;;;8.15;4.38;;;15.00;99.90;;;;;;4962487;28;20172;-84
2024/03/15 10:25:21;;;;;;;8.63;5.10;;;14.90;99.90;;;;;;4961960;28;20188;-85
2024/03/15 10:27:54;;;;;;;7.72;4.70;;;14.90;99.90;;;;;;4968865;28;20219;-84
2024/03/15 10:30:25;;;;;;;6.03;4.78;;;14.80;99.90;;;;;;4970168;28;20671;-86
2024/03/15 10:32:57;;;;;;;6.30;4.55;;;14.70;99.90;;;;;;4970389;28;20615;-84
2024/03/15 10:35:24;;;;;;;7.53;4.90;;;14.70;99.90;;;;;;4971794;28;20191;-85
2024/03/15 10:37:52;;;;;;;7.72;4.70;;;14.60;99.90;;;;;;4946035;28;20191;-84
2024/03/15 10:40:23;;;;;;;7.65;5.00;;;14.60;99.90;;;;;;4963127;28;20185;-86
2024/03/15 10:42:57;;;;;;;7.70;4.70;;;14.70;99.90;;;;;;4962209;28;20208;-86
2024/03/15 10:45:24;;;;;;;8.57;4.90;;;14.80;99.90;;;;;;4944041;28;20188;-85
2024/03/15 10:47:51;;;;;;;8.88;4.97;;;14.90;99.90;;;;;;4955264;28;20191;-86
2024/03/15 10:50:21;;;;;;;6.78;4.47;;;14.90;99.90;;;;;;4947869;28;20275;-84
2024/03/15 10:52:49;;;;;;;6.13;4.53;;;15.00;99.90;;;;;;4951178;28;20288;-84
2024/03/15 10:55:14;;;;;;;7.07;4.53;;;15.10;99.90;;;;;;4940596;29;20272;-85
2024/03/15 10:57:40;;;;;;;9.18;4.45;;;15.20;99.90;;;;;;4964981;28;20255;-86
2024/03/15 11:00:14;;;;;;;7.45;5.07;;;15.10;99.90;;;;;;4947608;28;20225;-85
2024/03/15 11:02:49;;;;;;;7.28;5.10;;;15.10;99.90;;;;;;4943282;28;20233;-84
2024/03/15 11:05:20;;;;;;;8.10;5.15;;;14.90;99.90;;;;;;4943772;28;20523;-86
2024/03/15 11:08:08;;;;;;;7.90;5.18;;;14.80;99.90;;;;;;4953038;28;20225;-84
2024/03/15 11:10:38;;;;;;;7.13;5.18;;;14.70;99.90;;;;;;4951934;28;20279;-86
2024/03/15 11:13:04;;;;;;;7.18;4.63;;;14.70;99.90;;;;;;4951252;28;20189;-86
2024/03/15 11:15:37;;;;;;;7.07;4.90;;;14.60;99.90;;;;;;4969168;28;20180;-87
2024/03/15 11:18:03;;;;;;;6.63;4.53;;;14.60;99.90;;;;;;4975980;28;20240;-86
2024/03/15 11:20:53;;;;;;;7.97;5.15;;;14.60;99.90;;;;;;4958480;28;20228;-85
2024/03/15 11:23:20;;;;;;;7.07;5.13;;;14.70;99.90;;;;;;4967222;28;20233;-86
2024/03/15 11:26:00;;;;;;;8.13;5.50;;;14.70;99.90;;;;;;4971211;28;20615;-87
2024/03/15 11:28:34;;;;;;;8.20;5.40;;;14.60;99.90;;;;;;4969734;28;20235;-85
2024/03/15 11:31:00;;;;;;;7.53;6.03;;;14.60;99.90;;;;;;4945477;28;20192;-85
2024/03/15 11:33:33;;;;;;;8.35;5.95;;;14.70;99.90;;;;;;4959007;28;20192;-82
2024/03/15 11:36:00;;;;;;;8.10;5.70;;;14.80;99.90;;;;;;4971123;28;20192;-85
2024/03/15 11:38:28;;;;;;;9.70;5.95;;;14.80;99.90;;;;;;4970754;28;20639;-87
2024/03/15 11:40:58;;;;;;;10.13;5.80;;;14.80;99.90;;;;;;4973864;28;20181;-86
2024/03/15 11:43:25;;;;;;;7.80;5.90;;;14.70;99.90;;;;;;4955428;28;20252;-87
2024/03/15 11:45:51;;;;;;;10.25;6.60;;;14.70;99.90;;;;;;4952258;29;20201;-86
2024/03/15 11:48:20;;;;;;;9.35;6.00;;;14.80;99.90;;;;;;4953594;28;20189;-85
2024/03/15 11:50:48;;;;;;;9.98;6.03;;;14.90;99.90;;;;;;4966761;28;20243;-86
2024/03/15 11:53:16;;;;;;;6.32;5.45;;;15.10;99.90;;;;;;4955447;28;20620;-85
2024/03/15 11:55:43;;;;;;;11.55;5.90;;;15.20;99.90;;;;;;4955722;28;20281;-86
2024/03/15 11:58:16;;;;;;;7.88;4.85;;;15.30;99.90;;;;;;4952746;28;20276;-85
2024/03/15 12:00:53;;;;;;;12.20;5.57;;;15.20;99.90;;;;;;4951875;28;20192;-86
2024/03/15 12:03:21;;;;;;;6.72;5.45;;;15.10;99.90;;;;;;4976229;28;20182;-86
2024/03/15 12:05:48;;;;;;;9.68;5.40;;;15.00;99.90;;;;;;4960227;28;20272;-85
2024/03/15 12:08:20;;;;;;;8.75;5.57;;;14.90;99.90;;;;;;4976040;28;20223;-86
2024/03/15 12:10:46;;;;;;;9.30;5.30;;;15.00;99.90;;;;;;4955785;28;20180;-85
2024/03/15 12:13:25;;;;;;;8.55;4.93;;;15.10;99.90;;;;;;4977184;28;20169;-85
2024/03/15 12:15:53;;;;;;;10.25;6.00;;;15.10;99.90;;;;;;4959576;28;20204;-86
2024/03/15 12:18:20;;;;;;;7.15;5.22;;;15.20;99.90;;;;;;4959713;28;20678;-85
2024/03/15 12:20:50;;;;;;;8.57;5.35;;;15.20;99.90;;;;;;4960042;28;20307;-84
2024/03/15 12:23:17;;;;;;;8.40;5.30;;;15.20;99.90;;;;;;4959446;28;20165;-85
2024/03/15 12:25:45;;;;;;;8.70;5.05;;;15.30;99.90;;;;;;4958695;28;20697;-86
2024/03/15 12:28:15;;;;;;;8.13;5.03;;;15.30;99.90;;;;;;4976936;28;20260;-85
2024/03/15 12:30:45;;;;;;;8.43;5.10;;;15.30;99.90;;;;;;4975550;28;20180;-85
2024/03/15 12:33:11;;;;;;;7.78;5.28;;;15.30;99.90;;;;;;4975602;28;20184;-85
2024/03/15 12:35:38;;;;;;;7.20;4.95;;;15.30;99.90;;;;;;4975323;28;20184;-84
2024/03/15 12:38:05;;;;;;;7.63;4.75;;;15.40;99.90;;;;;;4959004;28;20813;-86
2024/03/15 12:40:31;;;;;;;8.48;4.50;;;15.50;99.90;;;;;;4959451;28;20196;-86
2024/03/15 12:42:57;;;;;;;6.88;4.60;;;15.60;99.90;;;;;;4975439;28;20180;-85
2024/03/15 12:45:23;;;;;;;7.07;4.40;;;15.70;99.90;;;;;;4975264;28;20279;-85
2024/03/15 12:47:49;;;;;;;7.35;4.88;;;15.80;99.90;;;;;;4959096;28;20180;-86
2024/03/15 12:50:18;;;;;;;7.20;4.20;;;15.70;99.90;;;;;;4959079;28;20218;-84
2024/03/15 12:52:45;;;;;;;7.45;4.03;;;15.50;99.90;;;;;;4959401;28;20610;-83
2024/03/15 12:55:15;;;;;;;9.95;4.78;;;15.40;99.90;;;;;;4974897;28;20679;-83